Carle Place, New York
Current Conditions -  °F | °C
As of 4:53 AM on Friday 28 Nov 2014 (Local Time) from KFRG Reporting Station
Clear Clear  
Wind Chill: 26°   Ceiling: Unl
Heat Index: 32°   Visibility: 10mi
Dew Point: 22°   Wind: 6mph
Humidity: 66%   Direction: 310°NW
Pressure: 30.07"   Gusts: NA
Location:  40.75°N, 73.62°W
Report Text: KFRG 280953Z AUTO 31005KT 10SM CLR 00/M06 A3007 RMK AO2 SLP183 T00001056
Loading
Personal Weather Stations






























Interactive Weather Map New forecast layout! Learn more

10-Day Weather Forecast

Advertisements
Track Severe Weather on mobile